National Weather Service Raw Text Product

Displaying AFOS PIL: TAFMCW Received: 2018-12-06 05:21 UTC


255 
FTUS43 KDMX 060521
TAFMCW
TAF
KMCW 060521Z 0606/0706 33012KT P6SM OVC015
     FM061600 32011KT P6SM BKN025
     FM062000 31012KT P6SM BKN080
     FM070100 30007KT P6SM SKC=